TRA80H EHAM-LEVC
Flight info
| Callsign | TRA80H |
|---|---|
| Flight time | 1h 44m |
| Altitude | 23000 |
| Route | WOODY N872 CIV/N0442F370 DCT KOVIN DCT DUCRA DCT RESMI DCT DEKOD DCT DISAK DCT DIRMO DCT GUERE DCT AGN DCT ANETO DCT POSSY DCT ROCME DCT SEROX DCT CASPE DCT MLA DCT CRETA DCT RIMES DCT SAURA |
| Aircraft | A21N/M-SDE2E3FGHIRWXY/LB1 |
Departure
| Time | 2026-04-27 11:07 |
|---|---|
| Airport | Amsterdam Airport Schiphol (EHAM) |
Arrival
| Time | 2026-04-27 12:52 |
|---|---|
| Airport | Valencia Airport (LEVC) |
| Time | Latitude | Longitude | Altitude | Speed | Heading |
|---|---|---|---|---|---|
| 2026-04-27 10:35 | 52.30891 | 4.77236 | 12 ft | 0 kts | 2° |
| 2026-04-27 10:47 | 52.30882 | 4.77235 | 12 ft | 2 kts | 12° |
| 2026-04-27 10:47 | 52.30870 | 4.77227 | 12 ft | 2 kts | 31° |
| 2026-04-27 10:48 | 52.30859 | 4.77214 | 12 ft | 2 kts | 48° |
| 2026-04-27 10:48 | 52.30852 | 4.77197 | 12 ft | 2 kts | 64° |
| 2026-04-27 10:48 | 52.30847 | 4.77176 | 12 ft | 2 kts | 81° |
| 2026-04-27 10:48 | 52.30847 | 4.77154 | 12 ft | 2 kts | 97° |
| 2026-04-27 10:49 | 52.30848 | 4.77140 | 12 ft | 1 kts | 95° |
| 2026-04-27 10:49 | 52.30848 | 4.77139 | 12 ft | 0 kts | 94° |
| 2026-04-27 10:52 | 52.30846 | 4.77186 | 12 ft | 8 kts | 95° |
| 2026-04-27 10:52 | 52.30843 | 4.77276 | 12 ft | 9 kts | 92° |
| 2026-04-27 10:52 | 52.30840 | 4.77374 | 11 ft | 10 kts | 95° |
| 2026-04-27 10:52 | 52.30835 | 4.77504 | 9 ft | 13 kts | 93° |
| 2026-04-27 10:53 | 52.30872 | 4.77603 | 10 ft | 13 kts | 15° |
| 2026-04-27 10:53 | 52.31062 | 4.77625 | 8 ft | 19 kts | 1° |
| 2026-04-27 10:53 | 52.31187 | 4.77634 | 6 ft | 20 kts | 5° |
| 2026-04-27 10:54 | 52.31307 | 4.77646 | 3 ft | 20 kts | 5° |
| 2026-04-27 10:54 | 52.31435 | 4.77643 | 1 ft | 21 kts | 343° |
| 2026-04-27 10:54 | 52.31537 | 4.77517 | 1 ft | 20 kts | 308° |
| 2026-04-27 10:54 | 52.31578 | 4.77330 | 1 ft | 19 kts | 268° |
| 2026-04-27 10:55 | 52.31570 | 4.77133 | 0 ft | 19 kts | 269° |
| 2026-04-27 10:55 | 52.31563 | 4.76865 | -1 ft | 20 kts | 268° |
| 2026-04-27 10:55 | 52.31558 | 4.76730 | -1 ft | 19 kts | 264° |
| 2026-04-27 10:55 | 52.31551 | 4.76531 | -1 ft | 19 kts | 267° |
| 2026-04-27 10:56 | 52.31544 | 4.76343 | -2 ft | 9 kts | 266° |
| 2026-04-27 10:56 | 52.31544 | 4.76335 | -2 ft | 0 kts | 266° |
| 2026-04-27 10:56 | 52.31543 | 4.76326 | -2 ft | 1 kts | 266° |
| 2026-04-27 10:56 | 52.31543 | 4.76318 | -2 ft | 0 kts | 266° |
| 2026-04-27 10:57 | 52.31543 | 4.76308 | -2 ft | 1 kts | 266° |
| 2026-04-27 10:57 | 52.31542 | 4.76288 | -2 ft | 2 kts | 265° |
| 2026-04-27 10:57 | 52.31541 | 4.76258 | -2 ft | 3 kts | 267° |
| 2026-04-27 10:57 | 52.31538 | 4.76217 | -2 ft | 4 kts | 265° |
| 2026-04-27 10:58 | 52.31537 | 4.76167 | -2 ft | 5 kts | 269° |
| 2026-04-27 10:58 | 52.31536 | 4.76105 | -2 ft | 8 kts | 268° |
| 2026-04-27 10:58 | 52.31531 | 4.75989 | -1 ft | 16 kts | 267° |
| 2026-04-27 10:58 | 52.31525 | 4.75805 | 0 ft | 17 kts | 267° |
| 2026-04-27 10:59 | 52.31520 | 4.75638 | 2 ft | 16 kts | 267° |
| 2026-04-27 10:59 | 52.31513 | 4.75441 | 1 ft | 21 kts | 267° |
| 2026-04-27 10:59 | 52.31503 | 4.75217 | 0 ft | 21 kts | 266° |
| 2026-04-27 11:00 | 52.31489 | 4.74765 | -5 ft | 22 kts | 266° |
| 2026-04-27 11:00 | 52.31481 | 4.74526 | -6 ft | 22 kts | 267° |
| 2026-04-27 11:00 | 52.31498 | 4.74314 | -6 ft | 20 kts | 326° |
| 2026-04-27 11:00 | 52.31625 | 4.74299 | -7 ft | 23 kts | 2° |
| 2026-04-27 11:01 | 52.31767 | 4.74312 | -7 ft | 23 kts | 4° |
| 2026-04-27 11:01 | 52.31908 | 4.74327 | -7 ft | 22 kts | 3° |
| 2026-04-27 11:01 | 52.32026 | 4.74276 | -7 ft | 20 kts | 289° |
| 2026-04-27 11:01 | 52.32034 | 4.74060 | -7 ft | 20 kts | 271° |
| 2026-04-27 11:02 | 52.32044 | 4.73848 | -5 ft | 21 kts | 276° |
| 2026-04-27 11:02 | 52.32053 | 4.73621 | -3 ft | 21 kts | 274° |
| 2026-04-27 11:02 | 52.32070 | 4.73406 | -3 ft | 20 kts | 294° |
| 2026-04-27 11:02 | 52.32158 | 4.73249 | -5 ft | 20 kts | 320° |
| 2026-04-27 11:03 | 52.32262 | 4.73104 | -7 ft | 20 kts | 319° |
| 2026-04-27 11:03 | 52.32363 | 4.72968 | -7 ft | 20 kts | 317° |
| 2026-04-27 11:03 | 52.32464 | 4.72820 | -6 ft | 19 kts | 320° |
| 2026-04-27 11:03 | 52.32559 | 4.72690 | -5 ft | 18 kts | 319° |
| 2026-04-27 11:04 | 52.32648 | 4.72565 | -4 ft | 17 kts | 320° |
| 2026-04-27 11:04 | 52.32726 | 4.72432 | -3 ft | 17 kts | 312° |
| 2026-04-27 11:04 | 52.32818 | 4.72260 | -3 ft | 22 kts | 311° |
| 2026-04-27 11:04 | 52.32914 | 4.72082 | -4 ft | 22 kts | 311° |
| 2026-04-27 11:05 | 52.33022 | 4.71883 | -7 ft | 25 kts | 311° |
| 2026-04-27 11:05 | 52.33125 | 4.71684 | -7 ft | 24 kts | 304° |
| 2026-04-27 11:05 | 52.33115 | 4.71471 | -7 ft | 22 kts | 223° |
| 2026-04-27 11:05 | 52.33013 | 4.71317 | -7 ft | 21 kts | 223° |
| 2026-04-27 11:06 | 52.32914 | 4.71174 | -7 ft | 21 kts | 223° |
| 2026-04-27 11:06 | 52.32864 | 4.70997 | -7 ft | 20 kts | 275° |
| 2026-04-27 11:06 | 52.32923 | 4.70893 | -7 ft | 4 kts | 359° |
| 2026-04-27 11:06 | 52.32925 | 4.70893 | -7 ft | 3 kts | 360° |
| 2026-04-27 11:07 | 52.33161 | 4.70913 | -7 ft | 78 kts | 3° |
| 2026-04-27 11:07 | 52.33848 | 4.70975 | -6 ft | 146 kts | 2° |
| 2026-04-27 11:07 | 52.34864 | 4.71065 | 358 ft | 171 kts | 5° |
| 2026-04-27 11:07 | 52.35997 | 4.71184 | 775 ft | 199 kts | 5° |
| 2026-04-27 11:08 | 52.37239 | 4.71318 | 1652 ft | 202 kts | 6° |
| 2026-04-27 11:08 | 52.38418 | 4.71440 | 2391 ft | 198 kts | 6° |
| 2026-04-27 11:08 | 52.39699 | 4.71587 | 2663 ft | 222 kts | 8° |
| 2026-04-27 11:08 | 52.41019 | 4.72369 | 2955 ft | 242 kts | 40° |
| 2026-04-27 11:09 | 52.41868 | 4.74486 | 3960 ft | 240 kts | 74° |
| 2026-04-27 11:09 | 52.41899 | 4.76920 | 5072 ft | 234 kts | 104° |
| 2026-04-27 11:09 | 52.41257 | 4.78918 | 5840 ft | 239 kts | 131° |
| 2026-04-27 11:09 | 52.40129 | 4.80275 | 6546 ft | 244 kts | 155° |
| 2026-04-27 11:10 | 52.38721 | 4.81066 | 7244 ft | 250 kts | 165° |
| 2026-04-27 11:10 | 52.37153 | 4.81615 | 7956 ft | 255 kts | 169° |
| 2026-04-27 11:10 | 52.35624 | 4.82057 | 8666 ft | 259 kts | 171° |
| 2026-04-27 11:10 | 52.34097 | 4.82485 | 9357 ft | 262 kts | 171° |
| 2026-04-27 11:11 | 52.32545 | 4.82920 | 9941 ft | 269 kts | 171° |
| 2026-04-27 11:11 | 52.30913 | 4.83375 | 10374 ft | 283 kts | 171° |
| 2026-04-27 11:11 | 52.29116 | 4.83882 | 10812 ft | 297 kts | 171° |
| 2026-04-27 11:11 | 52.27335 | 4.84368 | 11222 ft | 310 kts | 173° |
| 2026-04-27 11:12 | 52.25486 | 4.84709 | 11584 ft | 324 kts | 177° |
| 2026-04-27 11:12 | 52.23454 | 4.84847 | 11952 ft | 338 kts | 182° |
| 2026-04-27 11:12 | 52.21428 | 4.84819 | 12431 ft | 346 kts | 183° |
| 2026-04-27 11:12 | 52.19389 | 4.84768 | 13083 ft | 350 kts | 184° |
| 2026-04-27 11:13 | 52.17292 | 4.84715 | 13790 ft | 351 kts | 184° |
| 2026-04-27 11:13 | 52.15203 | 4.84664 | 14463 ft | 353 kts | 184° |
| 2026-04-27 11:13 | 52.13067 | 4.84612 | 15110 ft | 355 kts | 184° |
| 2026-04-27 11:13 | 52.10710 | 4.84559 | 15750 ft | 359 kts | 184° |
| 2026-04-27 11:14 | 52.08435 | 4.84509 | 16344 ft | 363 kts | 184° |
| 2026-04-27 11:14 | 52.06203 | 4.84461 | 16909 ft | 367 kts | 185° |
| 2026-04-27 11:14 | 52.03915 | 4.84311 | 17459 ft | 369 kts | 190° |
| 2026-04-27 11:14 | 52.01664 | 4.83650 | 17975 ft | 369 kts | 199° |
| 2026-04-27 11:15 | 51.99508 | 4.82446 | 18509 ft | 368 kts | 207° |
| 2026-04-27 11:15 | 51.97423 | 4.80858 | 19091 ft | 370 kts | 210° |
| 2026-04-27 11:15 | 51.95297 | 4.79152 | 19698 ft | 372 kts | 210° |
| 2026-04-27 11:15 | 51.93185 | 4.77454 | 20269 ft | 374 kts | 210° |
| 2026-04-27 11:16 | 51.91055 | 4.75764 | 20815 ft | 377 kts | 210° |
| 2026-04-27 11:16 | 51.88882 | 4.74059 | 21352 ft | 380 kts | 210° |
| 2026-04-27 11:16 | 51.86675 | 4.72345 | 21874 ft | 383 kts | 210° |
| 2026-04-27 11:16 | 51.84453 | 4.70620 | 22390 ft | 385 kts | 210° |
| 2026-04-27 11:17 | 51.82209 | 4.68878 | 22901 ft | 388 kts | 210° |
| 2026-04-27 11:17 | 51.79915 | 4.67096 | 23415 ft | 390 kts | 210° |
| 2026-04-27 11:17 | 51.77602 | 4.65296 | 23894 ft | 393 kts | 210° |
| 2026-04-27 11:17 | 51.75216 | 4.63441 | 24380 ft | 396 kts | 210° |
| 2026-04-27 11:18 | 51.72794 | 4.61559 | 24853 ft | 399 kts | 210° |
| 2026-04-27 11:18 | 51.70398 | 4.59698 | 25316 ft | 401 kts | 210° |
| 2026-04-27 11:18 | 51.67978 | 4.57824 | 25780 ft | 403 kts | 210° |
| 2026-04-27 11:18 | 51.65564 | 4.55959 | 26208 ft | 405 kts | 210° |
| 2026-04-27 11:19 | 51.63092 | 4.54056 | 26641 ft | 407 kts | 210° |
| 2026-04-27 11:19 | 51.60558 | 4.52107 | 27074 ft | 409 kts | 211° |
| 2026-04-27 11:19 | 51.57977 | 4.50121 | 27484 ft | 411 kts | 210° |
| 2026-04-27 11:19 | 51.55393 | 4.48134 | 27883 ft | 412 kts | 210° |
| 2026-04-27 11:20 | 51.52840 | 4.46170 | 28256 ft | 414 kts | 211° |
| 2026-04-27 11:20 | 51.50205 | 4.44144 | 28630 ft | 416 kts | 211° |
| 2026-04-27 11:20 | 51.47617 | 4.42156 | 28985 ft | 418 kts | 211° |
| 2026-04-27 11:20 | 51.44988 | 4.40141 | 29270 ft | 422 kts | 211° |
| 2026-04-27 11:21 | 51.42335 | 4.38112 | 29530 ft | 425 kts | 211° |
| 2026-04-27 11:21 | 51.39643 | 4.36137 | 29895 ft | 427 kts | 208° |
| 2026-04-27 11:21 | 51.36995 | 4.34346 | 30343 ft | 425 kts | 207° |
| 2026-04-27 11:21 | 51.34484 | 4.32625 | 30766 ft | 424 kts | 208° |
| 2026-04-27 11:22 | 51.32003 | 4.30919 | 31173 ft | 422 kts | 208° |
| 2026-04-27 11:22 | 51.29613 | 4.29277 | 31530 ft | 421 kts | 208° |
| 2026-04-27 11:22 | 51.27232 | 4.27645 | 31888 ft | 420 kts | 208° |
| 2026-04-27 11:22 | 51.24837 | 4.26008 | 32225 ft | 419 kts | 208° |
| 2026-04-27 11:23 | 51.22428 | 4.24365 | 32569 ft | 418 kts | 208° |
| 2026-04-27 11:23 | 51.20061 | 4.22754 | 32884 ft | 418 kts | 208° |
| 2026-04-27 11:23 | 51.17603 | 4.21083 | 33218 ft | 417 kts | 208° |
| 2026-04-27 11:23 | 51.15177 | 4.19436 | 33544 ft | 416 kts | 208° |
| 2026-04-27 11:24 | 51.12767 | 4.17803 | 33852 ft | 415 kts | 208° |
| 2026-04-27 11:24 | 51.10423 | 4.16216 | 34144 ft | 414 kts | 208° |
| 2026-04-27 11:24 | 51.08092 | 4.14639 | 34418 ft | 413 kts | 208° |
| 2026-04-27 11:24 | 51.05680 | 4.13010 | 34681 ft | 413 kts | 208° |
| 2026-04-27 11:25 | 51.03316 | 4.11415 | 34929 ft | 412 kts | 208° |
| 2026-04-27 11:25 | 51.00943 | 4.09815 | 35135 ft | 412 kts | 208° |
| 2026-04-27 11:25 | 50.98551 | 4.08205 | 35322 ft | 412 kts | 208° |
| 2026-04-27 11:25 | 50.96130 | 4.06576 | 35482 ft | 412 kts | 208° |
| 2026-04-27 11:26 | 50.93730 | 4.04962 | 35628 ft | 413 kts | 208° |
| 2026-04-27 11:26 | 50.91333 | 4.03352 | 35755 ft | 414 kts | 208° |
| 2026-04-27 11:26 | 50.88896 | 4.01720 | 35885 ft | 415 kts | 208° |
| 2026-04-27 11:26 | 50.86513 | 4.00136 | 36005 ft | 416 kts | 207° |
| 2026-04-27 11:27 | 50.84144 | 3.98561 | 36117 ft | 418 kts | 207° |
| 2026-04-27 11:27 | 50.81741 | 3.96963 | 36225 ft | 419 kts | 207° |
| 2026-04-27 11:27 | 50.76855 | 3.93715 | 36442 ft | 421 kts | 207° |
| 2026-04-27 11:28 | 50.74395 | 3.92081 | 36568 ft | 421 kts | 207° |
| 2026-04-27 11:28 | 50.71973 | 3.90472 | 36681 ft | 422 kts | 207° |
| 2026-04-27 11:28 | 50.69542 | 3.88859 | 36817 ft | 423 kts | 207° |
| 2026-04-27 11:28 | 50.67058 | 3.87213 | 36954 ft | 423 kts | 207° |
| 2026-04-27 11:29 | 50.64617 | 3.85597 | 37089 ft | 424 kts | 207° |
| 2026-04-27 11:29 | 50.62181 | 3.83986 | 37209 ft | 425 kts | 207° |
| 2026-04-27 11:29 | 50.57196 | 3.80693 | 37226 ft | 430 kts | 207° |
| 2026-04-27 11:30 | 50.52172 | 3.77381 | 37222 ft | 436 kts | 207° |
| 2026-04-27 11:30 | 50.47052 | 3.74015 | 37211 ft | 440 kts | 207° |
| 2026-04-27 11:31 | 50.41875 | 3.70622 | 37218 ft | 441 kts | 207° |
| 2026-04-27 11:31 | 50.36498 | 3.67106 | 37211 ft | 441 kts | 207° |
| 2026-04-27 11:32 | 50.30968 | 3.63496 | 37206 ft | 441 kts | 207° |
| 2026-04-27 11:32 | 50.25412 | 3.59877 | 37212 ft | 442 kts | 207° |
| 2026-04-27 11:33 | 50.19289 | 3.55900 | 37217 ft | 442 kts | 207° |
| 2026-04-27 11:33 | 50.14842 | 3.53019 | 37206 ft | 442 kts | 207° |
| 2026-04-27 11:34 | 50.09583 | 3.49619 | 37196 ft | 441 kts | 207° |
| 2026-04-27 11:34 | 50.04250 | 3.46180 | 37198 ft | 441 kts | 207° |
| 2026-04-27 11:35 | 49.98843 | 3.42702 | 37208 ft | 441 kts | 207° |
| 2026-04-27 11:35 | 49.93425 | 3.39224 | 37214 ft | 441 kts | 207° |
| 2026-04-27 11:36 | 49.87994 | 3.35750 | 37220 ft | 441 kts | 207° |
| 2026-04-27 11:36 | 49.82716 | 3.32382 | 37221 ft | 441 kts | 206° |
| 2026-04-27 11:37 | 49.77437 | 3.29004 | 37210 ft | 442 kts | 206° |
| 2026-04-27 11:37 | 49.72207 | 3.25673 | 37221 ft | 441 kts | 206° |
| 2026-04-27 11:38 | 49.67087 | 3.22420 | 37212 ft | 441 kts | 206° |
| 2026-04-27 11:38 | 49.61941 | 3.19159 | 37199 ft | 441 kts | 206° |
| 2026-04-27 11:39 | 49.56847 | 3.15939 | 37185 ft | 441 kts | 206° |
| 2026-04-27 11:39 | 49.51809 | 3.12694 | 37199 ft | 440 kts | 208° |
| 2026-04-27 11:40 | 49.46938 | 3.08880 | 37197 ft | 437 kts | 213° |
| 2026-04-27 11:40 | 49.42314 | 3.04401 | 37193 ft | 435 kts | 217° |
| 2026-04-27 11:41 | 49.37603 | 2.99613 | 37184 ft | 434 kts | 217° |
| 2026-04-27 11:41 | 49.32806 | 2.94757 | 37193 ft | 434 kts | 217° |
| 2026-04-27 11:42 | 49.28157 | 2.90059 | 37190 ft | 434 kts | 217° |
| 2026-04-27 11:42 | 49.23588 | 2.85450 | 37199 ft | 434 kts | 217° |
| 2026-04-27 11:43 | 49.19014 | 2.80846 | 37206 ft | 434 kts | 217° |
| 2026-04-27 11:43 | 49.14371 | 2.76183 | 37200 ft | 434 kts | 217° |
| 2026-04-27 11:44 | 49.09580 | 2.71380 | 37208 ft | 434 kts | 217° |
| 2026-04-27 11:44 | 49.04693 | 2.66900 | 37206 ft | 437 kts | 208° |
| 2026-04-27 11:45 | 48.99103 | 2.64409 | 37209 ft | 445 kts | 193° |
| 2026-04-27 11:45 | 48.93262 | 2.63195 | 37209 ft | 446 kts | 192° |
| 2026-04-27 11:46 | 48.87471 | 2.62041 | 37209 ft | 446 kts | 192° |
| 2026-04-27 11:46 | 48.81636 | 2.60861 | 37204 ft | 445 kts | 192° |
| 2026-04-27 11:47 | 48.76040 | 2.59714 | 37195 ft | 445 kts | 192° |
| 2026-04-27 11:47 | 48.70284 | 2.58528 | 37191 ft | 445 kts | 192° |
| 2026-04-27 11:48 | 48.64368 | 2.57307 | 37189 ft | 445 kts | 192° |
| 2026-04-27 11:48 | 48.58404 | 2.56077 | 37187 ft | 446 kts | 192° |
| 2026-04-27 11:49 | 48.52472 | 2.54858 | 37189 ft | 446 kts | 192° |
| 2026-04-27 11:49 | 48.46638 | 2.53661 | 37182 ft | 445 kts | 192° |
| 2026-04-27 11:50 | 48.40958 | 2.52500 | 37171 ft | 445 kts | 192° |
| 2026-04-27 11:50 | 48.35327 | 2.51350 | 37167 ft | 445 kts | 192° |
| 2026-04-27 11:51 | 48.29227 | 2.50109 | 37169 ft | 445 kts | 192° |
| 2026-04-27 11:52 | 48.20614 | 2.48358 | 37163 ft | 444 kts | 192° |
| 2026-04-27 11:52 | 48.14800 | 2.47180 | 37168 ft | 444 kts | 192° |
| 2026-04-27 11:53 | 48.09055 | 2.46020 | 37170 ft | 444 kts | 192° |
| 2026-04-27 11:53 | 48.03372 | 2.44872 | 37175 ft | 443 kts | 192° |
| 2026-04-27 11:54 | 47.97717 | 2.43732 | 37180 ft | 444 kts | 192° |
| 2026-04-27 11:54 | 47.92064 | 2.42597 | 37171 ft | 444 kts | 192° |
| 2026-04-27 11:55 | 47.86385 | 2.41461 | 37171 ft | 444 kts | 192° |
| 2026-04-27 11:55 | 47.80667 | 2.40327 | 37174 ft | 444 kts | 192° |
| 2026-04-27 11:56 | 47.74612 | 2.39125 | 37168 ft | 444 kts | 192° |
| 2026-04-27 11:56 | 47.68794 | 2.37969 | 37166 ft | 444 kts | 192° |
| 2026-04-27 11:57 | 47.63394 | 2.36896 | 37166 ft | 444 kts | 192° |
| 2026-04-27 11:57 | 47.57824 | 2.35795 | 37164 ft | 444 kts | 192° |
| 2026-04-27 11:58 | 47.52261 | 2.34693 | 37161 ft | 444 kts | 191° |
| 2026-04-27 11:58 | 47.46917 | 2.33613 | 37156 ft | 444 kts | 191° |
| 2026-04-27 11:59 | 47.41586 | 2.32547 | 37149 ft | 445 kts | 192° |
| 2026-04-27 11:59 | 47.36231 | 2.31488 | 37141 ft | 445 kts | 192° |
| 2026-04-27 12:00 | 47.30818 | 2.30421 | 37135 ft | 445 kts | 191° |
| 2026-04-27 12:00 | 47.25341 | 2.29346 | 37136 ft | 444 kts | 192° |
| 2026-04-27 12:01 | 47.19912 | 2.28284 | 37133 ft | 444 kts | 191° |
| 2026-04-27 12:01 | 47.14530 | 2.27234 | 37132 ft | 444 kts | 191° |
| 2026-04-27 12:02 | 47.09073 | 2.26172 | 37130 ft | 444 kts | 191° |
| 2026-04-27 12:02 | 47.03659 | 2.25121 | 37129 ft | 445 kts | 191° |
| 2026-04-27 12:03 | 46.98373 | 2.24097 | 37130 ft | 445 kts | 191° |
| 2026-04-27 12:03 | 46.92930 | 2.23045 | 37137 ft | 444 kts | 192° |
| 2026-04-27 12:04 | 46.87550 | 2.22009 | 37142 ft | 444 kts | 191° |
| 2026-04-27 12:04 | 46.82011 | 2.20951 | 37148 ft | 444 kts | 191° |
| 2026-04-27 12:05 | 46.76479 | 2.19891 | 37146 ft | 445 kts | 191° |
| 2026-04-27 12:05 | 46.70859 | 2.18815 | 37145 ft | 445 kts | 191° |
| 2026-04-27 12:06 | 46.65231 | 2.17737 | 37147 ft | 445 kts | 191° |
| 2026-04-27 12:06 | 46.59578 | 2.16656 | 37147 ft | 445 kts | 191° |
| 2026-04-27 12:07 | 46.53956 | 2.15584 | 37141 ft | 446 kts | 191° |
| 2026-04-27 12:07 | 46.48299 | 2.14507 | 37132 ft | 447 kts | 191° |
| 2026-04-27 12:08 | 46.42720 | 2.13448 | 37134 ft | 448 kts | 191° |
| 2026-04-27 12:08 | 46.37001 | 2.12362 | 37141 ft | 448 kts | 191° |
| 2026-04-27 12:09 | 46.30872 | 2.11197 | 37134 ft | 449 kts | 191° |
| 2026-04-27 12:09 | 46.25287 | 2.10142 | 37133 ft | 449 kts | 191° |
| 2026-04-27 12:10 | 46.19684 | 2.08850 | 37131 ft | 447 kts | 194° |
| 2026-04-27 12:10 | 46.14241 | 2.06859 | 37127 ft | 445 kts | 200° |
| 2026-04-27 12:11 | 46.08911 | 2.04380 | 37130 ft | 445 kts | 201° |
| 2026-04-27 12:11 | 46.03588 | 2.01906 | 37129 ft | 445 kts | 200° |
| 2026-04-27 12:12 | 45.98268 | 1.99441 | 37131 ft | 444 kts | 201° |
| 2026-04-27 12:12 | 45.92940 | 1.96978 | 37128 ft | 444 kts | 201° |
| 2026-04-27 12:13 | 45.87631 | 1.94532 | 37128 ft | 445 kts | 200° |
| 2026-04-27 12:13 | 45.82299 | 1.92091 | 37132 ft | 445 kts | 201° |
| 2026-04-27 12:14 | 45.76954 | 1.89643 | 37128 ft | 445 kts | 201° |
| 2026-04-27 12:14 | 43.55380 | 0.98375 | 36965 ft | 448 kts | 204° |
| 2026-04-27 12:15 | 43.50664 | 0.94619 | 37089 ft | 445 kts | 221° |
| 2026-04-27 12:15 | 43.46315 | 0.90128 | 37091 ft | 451 kts | 213° |
| 2026-04-27 12:16 | 43.41430 | 0.86710 | 37103 ft | 453 kts | 205° |
| 2026-04-27 12:16 | 43.36251 | 0.84018 | 37109 ft | 454 kts | 201° |
| 2026-04-27 12:17 | 43.31005 | 0.81653 | 37105 ft | 454 kts | 200° |
| 2026-04-27 12:17 | 43.25518 | 0.79306 | 37115 ft | 454 kts | 199° |
| 2026-04-27 12:18 | 43.20267 | 0.77095 | 37117 ft | 454 kts | 199° |
| 2026-04-27 12:18 | 43.15056 | 0.74913 | 37122 ft | 455 kts | 199° |
| 2026-04-27 12:19 | 43.09820 | 0.72725 | 37133 ft | 455 kts | 199° |
| 2026-04-27 12:19 | 43.04595 | 0.70561 | 37136 ft | 456 kts | 197° |
| 2026-04-27 12:20 | 42.99275 | 0.68909 | 37139 ft | 457 kts | 194° |
| 2026-04-27 12:20 | 42.93850 | 0.67399 | 37142 ft | 457 kts | 194° |
| 2026-04-27 12:21 | 42.88387 | 0.65854 | 37143 ft | 457 kts | 194° |
| 2026-04-27 12:21 | 42.82817 | 0.64262 | 37154 ft | 457 kts | 194° |
| 2026-04-27 12:22 | 42.77232 | 0.62652 | 37166 ft | 457 kts | 194° |
| 2026-04-27 12:22 | 42.71593 | 0.61022 | 37171 ft | 457 kts | 194° |
| 2026-04-27 12:23 | 42.65944 | 0.59389 | 37176 ft | 457 kts | 194° |
| 2026-04-27 12:23 | 42.60352 | 0.57773 | 37176 ft | 457 kts | 194° |
| 2026-04-27 12:24 | 42.54743 | 0.56156 | 37176 ft | 457 kts | 194° |
| 2026-04-27 12:24 | 42.49072 | 0.54524 | 37168 ft | 458 kts | 194° |
| 2026-04-27 12:25 | 42.43428 | 0.52904 | 37162 ft | 458 kts | 194° |
| 2026-04-27 12:25 | 42.37763 | 0.51278 | 37155 ft | 458 kts | 194° |
| 2026-04-27 12:26 | 42.32097 | 0.49655 | 37144 ft | 458 kts | 194° |
| 2026-04-27 12:26 | 41.28473 | 0.23089 | 37015 ft | 458 kts | 202° |
| 2026-04-27 12:26 | 41.25885 | 0.21458 | 37061 ft | 457 kts | 210° |
| 2026-04-27 12:27 | 41.20434 | 0.18776 | 37063 ft | 462 kts | 196° |
| 2026-04-27 12:27 | 41.14778 | 0.16909 | 37060 ft | 460 kts | 196° |
| 2026-04-27 12:27 | 41.11879 | 0.15885 | 36808 ft | 457 kts | 197° |
| 2026-04-27 12:28 | 41.09061 | 0.14836 | 36191 ft | 456 kts | 198° |
| 2026-04-27 12:28 | 41.06311 | 0.13776 | 35478 ft | 460 kts | 198° |
| 2026-04-27 12:28 | 41.03546 | 0.12689 | 34717 ft | 465 kts | 198° |
| 2026-04-27 12:28 | 41.00687 | 0.11556 | 33890 ft | 467 kts | 198° |
| 2026-04-27 12:29 | 40.97762 | 0.10395 | 33039 ft | 468 kts | 198° |
| 2026-04-27 12:29 | 40.94954 | 0.09282 | 32264 ft | 468 kts | 198° |
| 2026-04-27 12:29 | 40.92107 | 0.08156 | 31727 ft | 463 kts | 198° |
| 2026-04-27 12:29 | 40.89328 | 0.07059 | 31243 ft | 457 kts | 198° |
| 2026-04-27 12:30 | 40.86582 | 0.05977 | 30543 ft | 457 kts | 198° |
| 2026-04-27 12:30 | 40.83792 | 0.04870 | 29664 ft | 459 kts | 198° |
| 2026-04-27 12:30 | 40.81044 | 0.03772 | 28862 ft | 460 kts | 198° |
| 2026-04-27 12:30 | 40.78260 | 0.02657 | 27978 ft | 462 kts | 198° |
| 2026-04-27 12:31 | 40.75448 | 0.01531 | 27022 ft | 465 kts | 198° |
| 2026-04-27 12:31 | 40.72625 | 0.00402 | 26185 ft | 465 kts | 198° |
| 2026-04-27 12:31 | 40.69852 | -0.00705 | 25563 ft | 460 kts | 198° |
| 2026-04-27 12:31 | 40.67067 | -0.01818 | 24961 ft | 456 kts | 198° |
| 2026-04-27 12:32 | 40.64307 | -0.02920 | 24329 ft | 451 kts | 198° |
| 2026-04-27 12:32 | 40.61581 | -0.04007 | 23570 ft | 451 kts | 198° |
| 2026-04-27 12:32 | 40.58806 | -0.05113 | 22487 ft | 457 kts | 198° |
| 2026-04-27 12:32 | 40.56051 | -0.06210 | 21496 ft | 460 kts | 198° |
| 2026-04-27 12:33 | 40.53203 | -0.07340 | 20579 ft | 459 kts | 197° |
| 2026-04-27 12:33 | 40.50485 | -0.08415 | 19950 ft | 440 kts | 197° |
| 2026-04-27 12:33 | 40.47853 | -0.09456 | 19316 ft | 420 kts | 197° |
| 2026-04-27 12:33 | 40.45327 | -0.10457 | 18416 ft | 409 kts | 197° |
| 2026-04-27 12:34 | 40.42846 | -0.11441 | 17526 ft | 407 kts | 197° |
| 2026-04-27 12:34 | 40.40361 | -0.12424 | 16494 ft | 415 kts | 197° |
| 2026-04-27 12:34 | 40.37804 | -0.13435 | 15468 ft | 422 kts | 196° |
| 2026-04-27 12:34 | 40.35209 | -0.14461 | 14447 ft | 426 kts | 196° |
| 2026-04-27 12:35 | 40.32577 | -0.15502 | 13556 ft | 420 kts | 196° |
| 2026-04-27 12:35 | 40.30058 | -0.16498 | 12520 ft | 409 kts | 196° |
| 2026-04-27 12:35 | 40.27602 | -0.17466 | 11599 ft | 400 kts | 196° |
| 2026-04-27 12:35 | 40.25225 | -0.18625 | 10872 ft | 398 kts | 207° |
| 2026-04-27 12:36 | 40.23141 | -0.20547 | 10406 ft | 395 kts | 218° |
| 2026-04-27 12:36 | 40.21172 | -0.22715 | 10157 ft | 395 kts | 220° |
| 2026-04-27 12:36 | 40.19144 | -0.24982 | 10153 ft | 395 kts | 219° |
| 2026-04-27 12:36 | 40.17170 | -0.27151 | 10129 ft | 396 kts | 219° |
| 2026-04-27 12:37 | 40.15212 | -0.29256 | 10115 ft | 395 kts | 218° |
| 2026-04-27 12:37 | 40.13266 | -0.31320 | 10132 ft | 375 kts | 218° |
| 2026-04-27 12:37 | 40.11456 | -0.33223 | 10136 ft | 357 kts | 218° |
| 2026-04-27 12:37 | 40.09689 | -0.35068 | 10107 ft | 339 kts | 218° |
| 2026-04-27 12:38 | 40.08039 | -0.36785 | 10100 ft | 322 kts | 217° |
| 2026-04-27 12:38 | 40.06453 | -0.38432 | 10096 ft | 305 kts | 217° |
| 2026-04-27 12:38 | 40.04932 | -0.40007 | 9614 ft | 303 kts | 217° |
| 2026-04-27 12:38 | 40.03419 | -0.41570 | 9045 ft | 299 kts | 217° |
| 2026-04-27 12:39 | 40.01906 | -0.43133 | 8483 ft | 294 kts | 217° |
| 2026-04-27 12:39 | 40.00422 | -0.44665 | 7914 ft | 290 kts | 217° |
| 2026-04-27 12:39 | 39.98968 | -0.46164 | 7359 ft | 286 kts | 217° |
| 2026-04-27 12:39 | 39.97553 | -0.47621 | 6826 ft | 290 kts | 217° |
| 2026-04-27 12:40 | 39.96122 | -0.49093 | 6278 ft | 294 kts | 217° |
| 2026-04-27 12:40 | 39.94640 | -0.50617 | 5977 ft | 288 kts | 217° |
| 2026-04-27 12:40 | 39.93220 | -0.52080 | 5976 ft | 279 kts | 217° |
| 2026-04-27 12:40 | 39.91788 | -0.53552 | 5976 ft | 279 kts | 217° |
| 2026-04-27 12:41 | 39.90357 | -0.55023 | 5970 ft | 279 kts | 217° |
| 2026-04-27 12:41 | 39.88948 | -0.56465 | 5968 ft | 279 kts | 217° |
| 2026-04-27 12:41 | 39.87539 | -0.57899 | 5853 ft | 279 kts | 217° |
| 2026-04-27 12:41 | 39.86117 | -0.59347 | 5735 ft | 278 kts | 217° |
| 2026-04-27 12:42 | 39.84707 | -0.60787 | 5614 ft | 277 kts | 217° |
| 2026-04-27 12:42 | 39.83318 | -0.62208 | 5504 ft | 277 kts | 217° |
| 2026-04-27 12:42 | 39.81913 | -0.63645 | 5387 ft | 276 kts | 217° |
| 2026-04-27 12:42 | 39.80516 | -0.65073 | 5268 ft | 276 kts | 216° |
| 2026-04-27 12:43 | 39.79133 | -0.66498 | 5153 ft | 276 kts | 216° |
| 2026-04-27 12:43 | 39.77761 | -0.67916 | 5133 ft | 276 kts | 216° |
| 2026-04-27 12:43 | 39.76365 | -0.69354 | 5124 ft | 276 kts | 216° |
| 2026-04-27 12:43 | 39.74979 | -0.70776 | 5111 ft | 271 kts | 216° |
| 2026-04-27 12:44 | 39.73630 | -0.72159 | 4952 ft | 263 kts | 216° |
| 2026-04-27 12:44 | 39.72323 | -0.73495 | 4800 ft | 255 kts | 216° |
| 2026-04-27 12:44 | 39.71065 | -0.74779 | 4653 ft | 247 kts | 216° |
| 2026-04-27 12:44 | 39.69830 | -0.76038 | 4475 ft | 241 kts | 216° |
| 2026-04-27 12:45 | 39.68601 | -0.77292 | 4193 ft | 240 kts | 216° |
| 2026-04-27 12:45 | 39.67375 | -0.78536 | 3953 ft | 236 kts | 214° |
| 2026-04-27 12:45 | 39.66069 | -0.79426 | 3777 ft | 225 kts | 192° |
| 2026-04-27 12:45 | 39.64676 | -0.79584 | 3616 ft | 213 kts | 169° |
| 2026-04-27 12:46 | 39.63399 | -0.79084 | 3447 ft | 203 kts | 149° |
| 2026-04-27 12:46 | 39.62346 | -0.78088 | 3289 ft | 200 kts | 136° |
| 2026-04-27 12:46 | 39.61395 | -0.76951 | 3138 ft | 201 kts | 135° |
| 2026-04-27 12:46 | 39.60463 | -0.75822 | 2991 ft | 200 kts | 135° |
| 2026-04-27 12:47 | 39.59540 | -0.74682 | 2899 ft | 199 kts | 133° |
| 2026-04-27 12:47 | 39.58672 | -0.73402 | 2902 ft | 200 kts | 124° |
| 2026-04-27 12:47 | 39.57938 | -0.71928 | 2900 ft | 200 kts | 117° |
| 2026-04-27 12:47 | 39.57322 | -0.70350 | 2901 ft | 200 kts | 115° |
| 2026-04-27 12:48 | 39.56742 | -0.68759 | 2891 ft | 193 kts | 114° |
| 2026-04-27 12:48 | 39.56196 | -0.67281 | 2863 ft | 179 kts | 115° |
| 2026-04-27 12:48 | 39.55679 | -0.65905 | 2790 ft | 180 kts | 115° |
| 2026-04-27 12:48 | 39.55130 | -0.64462 | 2583 ft | 179 kts | 115° |
| 2026-04-27 12:49 | 39.54586 | -0.63037 | 2429 ft | 169 kts | 115° |
| 2026-04-27 12:49 | 39.54086 | -0.61730 | 2176 ft | 157 kts | 115° |
| 2026-04-27 12:49 | 39.53622 | -0.60503 | 1991 ft | 145 kts | 114° |
| 2026-04-27 12:49 | 39.53188 | -0.59354 | 1789 ft | 143 kts | 115° |
| 2026-04-27 12:50 | 39.52753 | -0.58206 | 1535 ft | 141 kts | 114° |
| 2026-04-27 12:50 | 39.52314 | -0.57076 | 1383 ft | 142 kts | 114° |
| 2026-04-27 12:50 | 39.51866 | -0.55909 | 1182 ft | 144 kts | 113° |
| 2026-04-27 12:50 | 39.51432 | -0.54731 | 1013 ft | 145 kts | 116° |
| 2026-04-27 12:51 | 39.50974 | -0.53562 | 798 ft | 145 kts | 117° |
| 2026-04-27 12:51 | 39.50540 | -0.52400 | 629 ft | 142 kts | 114° |
| 2026-04-27 12:51 | 39.50105 | -0.51258 | 457 ft | 141 kts | 118° |
| 2026-04-27 12:51 | 39.49680 | -0.50128 | 283 ft | 138 kts | 119° |
| 2026-04-27 12:52 | 39.49280 | -0.49079 | 228 ft | 116 kts | 116° |
| 2026-04-27 12:52 | 39.49004 | -0.48354 | 211 ft | 42 kts | 115° |
| 2026-04-27 12:52 | 39.48979 | -0.48128 | 202 ft | 23 kts | 83° |
| 2026-04-27 12:52 | 39.49012 | -0.47933 | 190 ft | 18 kts | 76° |
| 2026-04-27 12:53 | 39.49117 | -0.47742 | 183 ft | 11 kts | 32° |
| 2026-04-27 12:53 | 39.49157 | -0.47668 | 181 ft | 9 kts | 69° |
| 2026-04-27 12:53 | 39.49168 | -0.47632 | 181 ft | 0 kts | 68° |